Time;durP1;ratioP1;P1;durP2;ratioP2;P2;SDS_P1;SDS_P2;PMS_P1;PMS_P2;Temp;Humidity;BMP_temperature;BMP_pressure;BME280_temperature;BME280_humidity;BME280_pressure;Samples;Min_cycle;Max_cycle;Signal;HPM_P1;HPM_P2
2023/12/31 00:02:05;;;;;;;6.30;5.70;;;3.30;99.90;;;;;;5046137;28;20206;-62
2023/12/31 00:04:34;;;;;;;9.23;8.43;;;3.30;99.90;;;;;;5046333;28;20237;-61
2023/12/31 00:07:01;;;;;;;10.25;8.85;;;3.40;99.90;;;;;;5060952;28;20264;-62
2023/12/31 00:09:27;;;;;;;14.73;9.25;;;3.40;99.90;;;;;;5046170;28;20281;-62
2023/12/31 00:11:54;;;;;;;10.75;9.25;;;3.40;99.90;;;;;;5048930;28;20647;-62
2023/12/31 00:14:21;;;;;;;12.98;10.00;;;3.40;99.90;;;;;;5057548;28;20641;-62
2023/12/31 00:16:48;;;;;;;9.93;9.00;;;3.40;99.90;;;;;;5054838;28;20832;-62
2023/12/31 00:19:15;;;;;;;9.23;8.40;;;3.40;99.90;;;;;;5054827;28;20681;-62
2023/12/31 00:21:44;;;;;;;11.75;10.27;;;3.40;99.90;;;;;;5060430;28;20300;-62
2023/12/31 00:24:11;;;;;;;10.38;8.73;;;3.50;99.90;;;;;;5055818;28;20206;-62
2023/12/31 00:26:38;;;;;;;9.10;7.50;;;3.40;99.90;;;;;;5052962;28;20293;-62
2023/12/31 00:29:04;;;;;;;8.25;7.18;;;3.50;99.90;;;;;;5062074;28;20205;-62
2023/12/31 00:31:31;;;;;;;8.95;8.05;;;3.40;99.90;;;;;;5063914;28;20296;-62
2023/12/31 00:33:58;;;;;;;9.60;8.32;;;3.50;99.90;;;;;;5056658;28;20230;-62
2023/12/31 00:36:26;;;;;;;8.98;8.18;;;3.40;99.90;;;;;;5062442;28;20234;-62
2023/12/31 00:38:55;;;;;;;8.60;7.80;;;3.40;99.90;;;;;;5064372;28;20206;-62
2023/12/31 00:41:22;;;;;;;7.57;6.90;;;3.40;99.90;;;;;;5053766;22;20241;-58
2023/12/31 00:43:49;;;;;;;11.38;6.50;;;3.30;99.90;;;;;;5014706;28;20765;-58
2023/12/31 00:46:16;;;;;;;7.75;6.95;;;3.30;99.90;;;;;;5013775;28;20626;-53
2023/12/31 00:48:42;;;;;;;8.15;7.05;;;3.20;99.90;;;;;;5018867;28;20349;-58
2023/12/31 00:51:09;;;;;;;7.53;6.72;;;3.20;99.90;;;;;;5025427;28;20312;-57
2023/12/31 00:53:36;;;;;;;9.10;7.20;;;3.20;99.90;;;;;;5013595;28;20287;-58
2023/12/31 00:56:05;;;;;;;8.48;5.82;;;3.20;99.90;;;;;;5021837;28;20294;-58
2023/12/31 00:58:32;;;;;;;5.63;5.10;;;3.10;99.90;;;;;;5013833;28;20209;-55
2023/12/31 01:00:59;;;;;;;6.75;4.90;;;3.10;99.90;;;;;;5023151;28;20781;-55
2023/12/31 01:03:25;;;;;;;6.43;5.78;;;3.00;99.90;;;;;;5013480;28;20252;-58
2023/12/31 01:05:52;;;;;;;6.05;5.40;;;3.00;99.90;;;;;;5021341;28;20206;-53
2023/12/31 01:08:19;;;;;;;7.18;4.82;;;3.00;99.90;;;;;;5019791;28;20227;-56
2023/12/31 01:10:46;;;;;;;5.68;5.25;;;2.90;99.90;;;;;;5013403;28;20311;-57
2023/12/31 01:13:14;;;;;;;6.78;6.05;;;2.90;99.90;;;;;;5019103;28;20297;-56
2023/12/31 01:15:42;;;;;;;6.13;5.32;;;2.80;99.90;;;;;;5023646;28;20297;-56
2023/12/31 01:18:10;;;;;;;5.20;4.70;;;2.80;99.90;;;;;;5012828;28;20588;-55
2023/12/31 01:20:37;;;;;;;5.68;5.13;;;2.80;99.90;;;;;;5015183;28;20232;-58
2023/12/31 01:23:04;;;;;;;7.35;6.10;;;2.70;99.90;;;;;;5020760;28;20235;-59
2023/12/31 01:25:31;;;;;;;6.22;5.03;;;2.70;99.90;;;;;;5012641;28;20215;-53
2023/12/31 01:27:57;;;;;;;5.30;4.90;;;2.70;99.90;;;;;;5012438;28;20906;-54
2023/12/31 01:30:26;;;;;;;7.20;6.60;;;2.70;99.90;;;;;;5014175;28;20679;-53
2023/12/31 01:32:53;;;;;;;5.35;5.00;;;2.60;99.90;;;;;;5015644;28;20204;-57
2023/12/31 01:35:20;;;;;;;6.75;6.15;;;2.60;99.90;;;;;;5021023;28;20238;-54
2023/12/31 01:37:46;;;;;;;7.30;6.70;;;2.60;99.90;;;;;;5008901;28;20259;-57
2023/12/31 01:40:14;;;;;;;7.20;6.47;;;2.50;99.90;;;;;;5000194;28;20315;-57
2023/12/31 01:42:40;;;;;;;6.55;6.03;;;2.50;99.90;;;;;;5009639;28;20215;-55
2023/12/31 01:45:08;;;;;;;6.50;5.88;;;2.50;99.90;;;;;;5005188;28;20302;-58
2023/12/31 01:47:39;;;;;;;7.13;6.40;;;2.50;99.90;;;;;;5012343;28;20281;-56
2023/12/31 01:50:07;;;;;;;6.70;6.10;;;2.40;99.90;;;;;;5005387;28;20251;-56
2023/12/31 01:52:35;;;;;;;6.90;6.20;;;2.40;99.90;;;;;;5004400;28;20223;-58
2023/12/31 01:55:05;;;;;;;7.63;6.50;;;2.30;99.90;;;;;;5006269;28;20299;-57
2023/12/31 01:57:33;;;;;;;6.45;5.90;;;2.30;99.90;;;;;;5012282;28;20203;-57
2023/12/31 02:00:03;;;;;;;7.43;6.00;;;2.30;99.90;;;;;;5008527;28;20255;-54
2023/12/31 02:02:30;;;;;;;6.13;5.53;;;2.30;99.90;;;;;;5008490;28;20216;-58
2023/12/31 02:04:59;;;;;;;7.70;5.80;;;2.30;99.90;;;;;;5004397;28;20290;-57
2023/12/31 02:07:25;;;;;;;6.80;6.10;;;2.20;99.90;;;;;;5012171;28;20255;-55
2023/12/31 02:09:52;;;;;;;7.33;6.63;;;2.20;99.90;;;;;;5003638;28;20262;-58
2023/12/31 02:12:19;;;;;;;6.90;6.40;;;2.20;99.90;;;;;;5006586;28;20447;-58
2023/12/31 02:14:46;;;;;;;5.90;5.50;;;2.10;99.90;;;;;;5010432;28;20295;-55
2023/12/31 02:17:13;;;;;;;9.05;6.00;;;2.10;99.90;;;;;;5004222;28;20666;-56
2023/12/31 02:19:40;;;;;;;5.68;5.15;;;2.10;99.90;;;;;;5011080;28;20232;-56
2023/12/31 02:22:09;;;;;;;5.72;5.25;;;2.10;99.90;;;;;;5004948;28;20645;-55
2023/12/31 02:24:47;;;;;;;5.78;5.28;;;2.00;99.90;;;;;;5004273;28;20247;-55
2023/12/31 02:27:15;;;;;;;5.65;5.25;;;2.00;99.90;;;;;;5012004;28;20290;-54
2023/12/31 02:29:42;;;;;;;6.93;6.25;;;2.00;99.90;;;;;;5003341;28;20223;-56
2023/12/31 02:32:09;;;;;;;8.10;7.30;;;2.00;99.90;;;;;;5007557;28;20299;-57
2023/12/31 02:34:36;;;;;;;5.25;4.85;;;2.00;99.90;;;;;;5008709;28;20658;-61
2023/12/31 02:37:03;;;;;;;6.28;5.78;;;2.00;99.90;;;;;;5003877;28;20218;-59
2023/12/31 02:39:29;;;;;;;6.65;6.05;;;2.00;99.90;;;;;;5011476;28;20600;-59
2023/12/31 02:41:56;;;;;;;7.07;6.25;;;1.90;99.90;;;;;;5003626;28;20216;-57
2023/12/31 02:44:24;;;;;;;5.43;4.90;;;1.90;99.90;;;;;;5005311;28;20240;-60
2023/12/31 02:46:51;;;;;;;6.55;5.93;;;1.90;99.90;;;;;;5009842;28;20213;-59
2023/12/31 02:49:18;;;;;;;7.38;6.55;;;1.90;99.90;;;;;;5005221;28;20740;-56
2023/12/31 02:51:45;;;;;;;5.72;5.22;;;1.80;99.90;;;;;;5011159;28;20254;-58
2023/12/31 02:54:12;;;;;;;8.85;5.50;;;1.80;99.90;;;;;;5006772;28;20300;-56
2023/12/31 02:56:42;;;;;;;5.82;5.22;;;1.80;99.90;;;;;;5008395;28;20299;-59
2023/12/31 02:59:09;;;;;;;6.43;5.82;;;1.80;99.90;;;;;;5003126;28;20295;-56
2023/12/31 03:01:38;;;;;;;8.43;6.20;;;1.80;99.90;;;;;;5011597;28;20251;-61
2023/12/31 03:04:05;;;;;;;6.72;6.20;;;1.70;99.90;;;;;;5004068;28;20291;-57
2023/12/31 03:06:33;;;;;;;7.05;6.35;;;1.70;99.90;;;;;;5003832;28;20291;-60
2023/12/31 03:09:01;;;;;;;6.15;5.55;;;1.70;99.90;;;;;;5010814;28;20223;-59
2023/12/31 03:11:29;;;;;;;5.30;4.80;;;1.60;99.90;;;;;;5003168;28;20235;-56
2023/12/31 03:13:56;;;;;;;6.43;5.53;;;1.60;99.90;;;;;;5008778;28;20673;-60
2023/12/31 03:16:24;;;;;;;16.42;6.30;;;1.60;99.90;;;;;;5006381;28;20869;-58
2023/12/31 03:18:53;;;;;;;8.50;6.10;;;1.60;99.90;;;;;;5011144;28;20208;-56
2023/12/31 03:21:20;;;;;;;8.73;6.40;;;1.60;99.90;;;;;;5011261;28;20230;-59
2023/12/31 03:23:47;;;;;;;5.43;4.93;;;1.60;99.90;;;;;;5011062;28;20214;-54
2023/12/31 03:26:15;;;;;;;6.47;5.53;;;1.50;99.90;;;;;;5011001;28;20219;-57
2023/12/31 03:28:42;;;;;;;6.03;5.53;;;1.50;99.90;;;;;;5010810;28;20259;-60
2023/12/31 03:31:10;;;;;;;5.88;5.45;;;1.50;99.90;;;;;;5011087;28;20315;-57
2023/12/31 03:33:37;;;;;;;6.53;5.55;;;1.50;99.90;;;;;;5010942;28;20226;-55
2023/12/31 03:36:06;;;;;;;7.88;7.20;;;1.50;99.90;;;;;;5011082;28;20287;-57
2023/12/31 03:38:33;;;;;;;8.48;7.30;;;1.40;99.90;;;;;;5010620;28;20235;-55
2023/12/31 03:41:00;;;;;;;7.03;5.75;;;1.40;99.90;;;;;;5009687;28;20315;-56
2023/12/31 03:43:27;;;;;;;7.43;6.70;;;1.40;99.90;;;;;;5011234;28;20211;-56
2023/12/31 03:45:54;;;;;;;7.97;6.53;;;1.40;99.90;;;;;;5011749;28;20204;-56
2023/12/31 03:48:20;;;;;;;7.13;6.35;;;1.40;99.90;;;;;;5011556;28;20606;-59
2023/12/31 03:50:47;;;;;;;4.97;4.57;;;1.40;99.90;;;;;;5011134;28;20243;-55
2023/12/31 03:53:15;;;;;;;6.97;6.40;;;1.40;99.90;;;;;;5011642;28;20208;-54
2023/12/31 03:55:43;;;;;;;7.95;6.90;;;1.40;99.90;;;;;;5010341;28;20291;-55
2023/12/31 03:58:10;;;;;;;7.43;6.70;;;1.40;99.90;;;;;;5011480;28;20203;-58
2023/12/31 04:00:37;;;;;;;8.00;7.30;;;1.40;99.90;;;;;;5011515;28;20227;-58
2023/12/31 04:03:04;;;;;;;9.70;7.30;;;1.40;99.90;;;;;;5011554;28;20627;-56
2023/12/31 04:05:31;;;;;;;8.60;7.57;;;1.50;99.90;;;;;;5014122;28;20218;-55
2023/12/31 04:07:58;;;;;;;8.18;7.38;;;1.50;99.90;;;;;;5015024;28;20234;-54
2023/12/31 04:10:26;;;;;;;9.20;8.10;;;1.50;99.90;;;;;;5014788;28;20238;-58
2023/12/31 04:12:53;;;;;;;8.63;7.82;;;1.50;99.90;;;;;;5015342;28;20302;-54
2023/12/31 04:15:20;;;;;;;9.70;8.77;;;1.60;99.90;;;;;;5015364;28;20212;-58
2023/12/31 04:17:47;;;;;;;9.95;7.57;;;1.60;99.90;;;;;;5017267;28;20241;-57
2023/12/31 04:20:14;;;;;;;8.10;7.22;;;1.70;99.90;;;;;;5033460;28;20266;-56
2023/12/31 04:22:41;;;;;;;11.30;7.82;;;1.70;99.90;;;;;;5034887;28;20207;-59
2023/12/31 04:25:08;;;;;;;9.00;6.82;;;1.80;99.90;;;;;;5034891;28;20302;-53
2023/12/31 04:27:38;;;;;;;7.82;7.07;;;1.80;99.90;;;;;;5034699;28;20291;-56
2023/12/31 04:30:06;;;;;;;10.70;8.52;;;1.90;99.90;;;;;;5032960;28;20237;-57
2023/12/31 04:32:33;;;;;;;7.88;7.07;;;1.90;99.90;;;;;;5034398;28;20792;-58
2023/12/31 04:35:00;;;;;;;8.60;7.07;;;2.00;99.90;;;;;;5034629;28;20619;-55
2023/12/31 04:37:27;;;;;;;6.90;6.32;;;2.10;99.90;;;;;;5034380;28;20211;-56
2023/12/31 04:39:54;;;;;;;6.40;5.82;;;2.10;99.90;;;;;;5034226;28;20693;-54
2023/12/31 04:42:21;;;;;;;7.18;6.47;;;2.20;99.90;;;;;;5034377;28;20213;-57
2023/12/31 04:44:49;;;;;;;8.32;6.75;;;2.20;99.90;;;;;;5034190;28;20206;-56
2023/12/31 04:47:16;;;;;;;9.10;7.35;;;2.30;99.90;;;;;;5034434;28;20207;-56
2023/12/31 04:49:43;;;;;;;7.43;6.70;;;2.30;99.90;;;;;;5033862;28;20234;-56
2023/12/31 04:52:10;;;;;;;7.30;6.60;;;2.30;99.90;;;;;;5034230;28;20207;-57
2023/12/31 04:54:38;;;;;;;7.60;6.95;;;2.40;99.90;;;;;;5034194;28;20207;-54
2023/12/31 04:57:05;;;;;;;7.40;6.70;;;2.30;99.90;;;;;;5033962;28;20596;-58
2023/12/31 04:59:32;;;;;;;6.95;6.20;;;2.40;99.90;;;;;;5033936;28;20199;-58
2023/12/31 05:02:00;;;;;;;6.55;5.90;;;2.40;99.90;;;;;;5034234;28;20592;-56
2023/12/31 05:04:27;;;;;;;7.20;6.10;;;2.30;99.90;;;;;;5033922;28;20214;-53
2023/12/31 05:06:54;;;;;;;7.43;6.72;;;2.30;99.90;;;;;;5033918;28;20213;-57
2023/12/31 05:09:21;;;;;;;8.13;6.50;;;2.30;99.90;;;;;;5033650;28;20314;-55
2023/12/31 05:11:48;;;;;;;6.75;6.05;;;2.30;99.90;;;;;;5033799;28;20700;-55
2023/12/31 05:14:14;;;;;;;9.10;7.63;;;2.40;99.90;;;;;;5034001;28;20214;-58
2023/12/31 05:16:41;;;;;;;6.75;5.30;;;2.40;99.90;;;;;;5033508;28;20678;-58
2023/12/31 05:19:09;;;;;;;7.22;6.63;;;2.30;99.90;;;;;;5033664;28;20294;-60
2023/12/31 05:21:39;;;;;;;7.95;6.93;;;2.40;99.90;;;;;;5033779;28;20657;-56
2023/12/31 05:24:06;;;;;;;9.55;7.10;;;2.50;99.90;;;;;;5033454;28;20208;-57
2023/12/31 05:26:33;;;;;;;6.38;5.55;;;2.50;99.90;;;;;;5033748;28;20246;-54
2023/12/31 05:29:00;;;;;;;6.55;6.05;;;2.50;99.90;;;;;;5033146;28;20713;-57
2023/12/31 05:31:27;;;;;;;7.95;7.18;;;2.50;99.90;;;;;;5033330;28;20230;-56
2023/12/31 05:33:54;;;;;;;8.75;6.93;;;2.60;99.90;;;;;;5033456;28;20214;-57
2023/12/31 05:36:22;;;;;;;6.72;6.10;;;2.60;99.90;;;;;;5033319;28;20229;-56
2023/12/31 05:38:49;;;;;;;6.65;6.05;;;2.60;99.90;;;;;;5032929;28;20207;-57
2023/12/31 05:41:15;;;;;;;6.22;5.70;;;2.60;99.90;;;;;;5033211;28;20237;-59
2023/12/31 05:43:43;;;;;;;7.63;6.82;;;2.60;99.90;;;;;;5033473;28;20230;-57
2023/12/31 05:46:09;;;;;;;6.90;6.40;;;2.70;99.90;;;;;;5033225;28;20749;-57
2023/12/31 05:48:36;;;;;;;6.95;6.32;;;2.70;99.90;;;;;;5032905;28;20227;-58
2023/12/31 05:51:03;;;;;;;7.43;6.72;;;2.80;99.90;;;;;;5032953;28;20735;-59
2023/12/31 05:53:31;;;;;;;9.60;5.53;;;2.80;99.90;;;;;;5032894;28;20306;-57
2023/12/31 05:55:58;;;;;;;6.65;6.05;;;2.70;99.90;;;;;;5033183;28;20211;-57
2023/12/31 05:58:25;;;;;;;9.23;6.63;;;2.80;99.90;;;;;;5033061;28;20207;-60
2023/12/31 06:00:52;;;;;;;8.00;5.80;;;2.80;99.90;;;;;;5032660;28;20227;-58
2023/12/31 06:03:19;;;;;;;7.10;6.22;;;2.70;99.90;;;;;;5032944;28;20302;-55
2023/12/31 06:05:45;;;;;;;8.95;6.97;;;2.80;99.90;;;;;;5032682;28;20753;-56
2023/12/31 06:08:12;;;;;;;6.97;6.35;;;2.80;99.90;;;;;;5032695;28;20207;-57
2023/12/31 06:10:40;;;;;;;8.00;6.68;;;2.80;99.90;;;;;;5032629;28;20219;-58
2023/12/31 06:13:07;;;;;;;7.43;6.72;;;2.80;99.90;;;;;;5032774;28;20213;-56
2023/12/31 06:15:34;;;;;;;6.78;6.10;;;2.80;99.90;;;;;;5032818;28;20210;-58
2023/12/31 06:18:01;;;;;;;7.10;6.40;;;2.80;99.90;;;;;;5032498;28;20215;-54
2023/12/31 06:20:28;;;;;;;6.55;6.05;;;2.80;99.90;;;;;;5032164;28;20314;-57
2023/12/31 06:22:55;;;;;;;6.10;5.70;;;2.80;99.90;;;;;;5032728;28;20207;-56
2023/12/31 06:25:22;;;;;;;7.82;6.80;;;2.90;99.90;;;;;;5032373;28;20257;-57
2023/12/31 06:27:51;;;;;;;7.93;6.60;;;2.90;99.90;;;;;;5032048;28;20204;-58
2023/12/31 06:30:18;;;;;;;7.65;6.78;;;2.90;99.90;;;;;;5032094;28;20258;-57
2023/12/31 06:32:44;;;;;;;10.75;8.00;;;2.90;99.90;;;;;;5032378;28;20203;-54
2023/12/31 06:35:11;;;;;;;8.00;7.15;;;3.00;99.90;;;;;;5032222;28;20207;-54
2023/12/31 06:37:38;;;;;;;7.68;6.95;;;3.10;99.90;;;;;;5032497;28;20217;-58
2023/12/31 06:40:06;;;;;;;10.00;9.10;;;3.10;99.90;;;;;;5063992;22;20983;-60
2023/12/31 06:42:33;;;;;;;8.38;7.57;;;3.10;99.90;;;;;;5071937;28;20672;-60
2023/12/31 06:45:01;;;;;;;7.93;7.22;;;3.20;99.90;;;;;;5072081;28;20218;-61
2023/12/31 06:47:28;;;;;;;7.82;7.13;;;3.20;99.90;;;;;;5070978;28;20589;-61
2023/12/31 06:49:55;;;;;;;8.88;8.05;;;3.20;99.90;;;;;;5069307;28;20224;-60
2023/12/31 06:52:22;;;;;;;10.90;9.80;;;3.30;99.90;;;;;;5059995;28;20626;-61
2023/12/31 06:54:49;;;;;;;11.20;10.13;;;3.30;99.90;;;;;;5069941;28;20209;-61
2023/12/31 06:57:16;;;;;;;9.55;8.65;;;3.30;99.90;;;;;;5072153;28;20591;-61
2023/12/31 06:59:42;;;;;;;8.65;7.75;;;3.30;99.90;;;;;;5071566;28;20676;-61
2023/12/31 07:02:11;;;;;;;7.60;6.90;;;3.40;99.90;;;;;;5071829;28;20215;-61
2023/12/31 07:04:37;;;;;;;8.60;7.78;;;3.40;99.90;;;;;;5071676;28;20202;-61
2023/12/31 07:07:04;;;;;;;7.75;7.10;;;3.40;99.90;;;;;;5071569;28;20304;-61
2023/12/31 07:09:32;;;;;;;8.68;7.45;;;3.40;99.90;;;;;;5071604;28;20252;-61
2023/12/31 07:11:59;;;;;;;11.90;7.70;;;3.40;99.90;;;;;;5071741;28;20316;-61
2023/12/31 07:14:26;;;;;;;10.07;7.60;;;3.40;99.90;;;;;;5071595;28;20210;-61
2023/12/31 07:16:53;;;;;;;13.15;9.07;;;3.40;99.90;;;;;;5071611;28;20210;-61
2023/12/31 07:19:21;;;;;;;9.35;8.10;;;3.40;99.90;;;;;;5071282;28;20202;-61
2023/12/31 07:21:48;;;;;;;7.93;6.30;;;3.40;99.90;;;;;;5071701;28;20252;-60
2023/12/31 07:24:15;;;;;;;7.82;7.10;;;3.40;99.90;;;;;;5071687;28;20202;-60
2023/12/31 07:26:42;;;;;;;9.55;8.00;;;3.40;99.90;;;;;;5071492;28;20296;-61
2023/12/31 07:29:09;;;;;;;7.68;6.88;;;3.50;99.90;;;;;;5071215;28;20785;-61
2023/12/31 07:31:36;;;;;;;8.38;7.57;;;3.40;99.90;;;;;;5071428;28;20235;-61
2023/12/31 07:34:03;;;;;;;9.57;8.02;;;3.40;99.90;;;;;;5071211;28;20209;-61
2023/12/31 07:36:32;;;;;;;7.95;7.20;;;3.50;99.90;;;;;;5071243;28;20205;-59
2023/12/31 07:38:58;;;;;;;8.82;8.02;;;3.50;99.90;;;;;;5071495;28;20202;-61
2023/12/31 07:41:25;;;;;;;10.20;7.18;;;3.60;99.90;;;;;;5075337;28;20319;-61
2023/12/31 07:43:52;;;;;;;7.47;6.78;;;3.50;99.90;;;;;;5069808;28;20263;-61
2023/12/31 07:46:19;;;;;;;8.63;7.82;;;3.60;99.90;;;;;;5067011;28;20205;-61
2023/12/31 07:48:46;;;;;;;9.45;7.30;;;3.60;99.90;;;;;;5074931;28;20212;-61
2023/12/31 07:51:13;;;;;;;11.00;8.27;;;3.70;99.90;;;;;;5075486;28;20399;-61
2023/12/31 07:53:41;;;;;;;7.82;7.22;;;3.70;99.90;;;;;;5075434;28;20212;-61
2023/12/31 07:56:07;;;;;;;7.05;6.45;;;3.70;99.90;;;;;;5075300;28;20585;-60
2023/12/31 07:58:34;;;;;;;8.98;6.18;;;3.70;99.90;;;;;;5074905;28;20209;-61
2023/12/31 08:01:03;;;;;;;8.50;7.22;;;3.70;99.90;;;;;;5075172;28;20223;-60
2023/12/31 08:03:30;;;;;;;8.52;7.70;;;3.70;99.90;;;;;;5075231;28;20209;-61
2023/12/31 08:05:57;;;;;;;9.35;8.32;;;3.80;99.90;;;;;;5075242;28;20237;-61
2023/12/31 08:08:24;;;;;;;10.82;8.23;;;3.80;99.90;;;;;;5074865;28;20205;-61
2023/12/31 08:10:52;;;;;;;9.57;8.68;;;3.80;99.90;;;;;;5074703;28;20294;-61
2023/12/31 08:13:19;;;;;;;9.20;8.07;;;3.80;99.90;;;;;;5059075;28;20212;-61
2023/12/31 08:15:46;;;;;;;8.27;7.47;;;3.80;99.90;;;;;;5054525;28;20313;-60
2023/12/31 08:18:13;;;;;;;8.68;7.63;;;3.90;99.90;;;;;;5054566;28;20297;-61
2023/12/31 08:20:40;;;;;;;8.30;7.15;;;3.90;99.90;;;;;;5054184;28;20225;-61
2023/12/31 08:23:07;;;;;;;9.98;8.98;;;3.90;99.90;;;;;;5054417;28;20589;-61
2023/12/31 08:25:34;;;;;;;8.60;7.70;;;4.00;99.90;;;;;;5054397;28;20210;-61
2023/12/31 08:28:02;;;;;;;8.13;7.20;;;4.00;99.90;;;;;;5054363;28;20593;-61
2023/12/31 08:30:29;;;;;;;8.77;7.93;;;4.00;99.90;;;;;;5054072;28;20240;-61
2023/12/31 08:32:56;;;;;;;9.93;8.60;;;4.10;99.90;;;;;;5051189;28;20209;-61
2023/12/31 08:35:25;;;;;;;8.52;7.90;;;4.10;99.90;;;;;;5054471;28;20615;-61
2023/12/31 08:37:52;;;;;;;8.43;7.63;;;4.10;99.90;;;;;;5050957;28;20204;-61
2023/12/31 08:40:19;;;;;;;8.30;7.57;;;4.20;99.90;;;;;;5035406;28;20341;-61
2023/12/31 08:42:46;;;;;;;10.90;9.40;;;4.20;99.90;;;;;;5034327;28;20217;-61
2023/12/31 08:45:15;;;;;;;9.48;8.68;;;4.20;99.90;;;;;;5034444;28;20211;-61
2023/12/31 08:47:42;;;;;;;11.90;9.32;;;4.30;99.90;;;;;;5034174;28;20699;-61
2023/12/31 08:50:10;;;;;;;13.40;12.00;;;4.30;99.90;;;;;;5033237;28;20277;-61
2023/12/31 08:52:39;;;;;;;11.43;9.05;;;4.30;99.90;;;;;;5034303;28;20587;-61
2023/12/31 08:55:07;;;;;;;9.75;8.73;;;4.40;99.90;;;;;;5034043;28;20704;-60
2023/12/31 08:57:34;;;;;;;13.80;12.23;;;4.40;99.90;;;;;;5034357;28;20211;-61
2023/12/31 09:00:02;;;;;;;12.38;10.48;;;4.40;99.90;;;;;;5033792;28;20314;-61
2023/12/31 09:02:30;;;;;;;13.20;10.90;;;4.50;99.90;;;;;;5034243;28;20211;-62
2023/12/31 09:04:57;;;;;;;17.35;15.20;;;4.50;99.90;;;;;;5034048;28;20207;-60
2023/12/31 09:07:23;;;;;;;14.57;12.90;;;4.60;99.90;;;;;;5033842;28;20219;-60
2023/12/31 09:09:50;;;;;;;17.13;12.85;;;4.60;99.90;;;;;;5033350;28;20227;-62
2023/12/31 09:12:17;;;;;;;25.73;18.08;;;4.70;99.90;;;;;;5033837;28;20211;-61
2023/12/31 09:14:44;;;;;;;16.77;15.13;;;4.70;99.90;;;;;;5034087;28;20207;-60
2023/12/31 09:17:11;;;;;;;18.58;16.23;;;4.80;99.90;;;;;;5033682;28;20207;-61
2023/12/31 09:19:40;;;;;;;18.15;16.00;;;4.90;99.90;;;;;;5033359;28;20218;-61
2023/12/31 09:22:08;;;;;;;19.38;17.40;;;4.90;99.90;;;;;;5033636;28;20207;-62
2023/12/31 09:24:35;;;;;;;19.45;16.35;;;5.00;99.90;;;;;;5033564;28;20211;-62
2023/12/31 09:27:03;;;;;;;14.65;13.20;;;5.10;99.90;;;;;;5033554;28;20214;-62
2023/12/31 09:29:29;;;;;;;15.50;13.90;;;5.10;99.90;;;;;;5033496;28;20215;-62
2023/12/31 09:31:56;;;;;;;15.75;14.10;;;5.20;99.90;;;;;;5033577;28;20778;-61
2023/12/31 09:34:23;;;;;;;11.43;10.48;;;5.30;99.90;;;;;;5033446;28;20588;-62
2023/12/31 09:36:52;;;;;;;12.95;11.60;;;5.40;99.90;;;;;;5033259;28;20239;-62
2023/12/31 09:39:19;;;;;;;12.65;11.45;;;5.50;99.90;;;;;;5033446;28;20203;-62
2023/12/31 09:41:49;;;;;;;12.38;11.18;;;5.50;99.90;;;;;;5033299;28;20231;-61
2023/12/31 09:44:19;;;;;;;12.40;11.07;;;5.60;99.90;;;;;;5033322;28;20293;-62
2023/12/31 09:46:54;;;;;;;15.57;10.90;;;5.70;99.90;;;;;;5033259;28;20693;-61
2023/12/31 09:49:22;;;;;;;10.60;9.55;;;5.80;99.90;;;;;;5032942;28;20215;-61
2023/12/31 09:51:49;;;;;;;12.35;11.27;;;5.80;99.90;;;;;;5032629;28;20231;-61
2023/12/31 09:54:19;;;;;;;12.98;11.10;;;5.90;99.90;;;;;;5033079;28;20207;-62
2023/12/31 09:56:48;;;;;;;12.55;11.35;;;5.90;99.90;;;;;;5033162;28;20234;-61
2023/12/31 09:59:16;;;;;;;10.98;10.07;;;5.90;99.90;;;;;;5032782;28;20222;-61
2023/12/31 10:01:44;;;;;;;12.70;11.60;;;6.00;99.90;;;;;;5031781;28;20325;-62
2023/12/31 10:04:12;;;;;;;14.30;12.85;;;5.90;99.90;;;;;;5032824;28;20207;-61
2023/12/31 10:06:40;;;;;;;10.27;9.30;;;6.00;99.90;;;;;;5032678;28;20687;-61
2023/12/31 10:09:09;;;;;;;12.20;11.05;;;6.10;99.90;;;;;;5040508;28;20207;-60
2023/12/31 10:11:39;;;;;;;11.45;10.35;;;6.20;99.90;;;;;;5036844;28;20603;-61
2023/12/31 10:14:06;;;;;;;11.05;9.07;;;6.30;99.90;;;;;;5038837;28;20302;-61
2023/12/31 10:16:40;;;;;;;11.55;10.38;;;6.40;99.90;;;;;;5036033;28;20199;-60
2023/12/31 10:19:07;;;;;;;13.07;11.75;;;6.50;99.90;;;;;;5035139;28;20199;-62
2023/12/31 10:21:34;;;;;;;13.00;11.65;;;6.60;99.90;;;;;;5045864;28;20280;-61
2023/12/31 10:24:01;;;;;;;11.80;10.60;;;6.70;99.90;;;;;;5034563;28;20209;-62
2023/12/31 10:26:28;;;;;;;9.88;8.85;;;6.80;99.90;;;;;;5051740;28;20244;-61
2023/12/31 10:28:56;;;;;;;11.63;10.50;;;6.90;99.90;;;;;;5043449;28;20198;-62
2023/12/31 10:31:25;;;;;;;10.55;9.65;;;7.00;99.90;;;;;;5044635;28;20318;-61
2023/12/31 10:33:52;;;;;;;11.73;10.45;;;7.10;99.90;;;;;;5045600;28;20202;-61
2023/12/31 10:36:22;;;;;;;10.13;9.23;;;7.20;99.90;;;;;;5052187;28;20210;-62
2023/12/31 10:38:50;;;;;;;10.98;9.95;;;7.30;99.90;;;;;;5051606;28;20595;-62
2023/12/31 10:41:20;;;;;;;13.93;11.27;;;7.40;99.90;;;;;;5051830;28;20248;-62
2023/12/31 10:43:48;;;;;;;12.75;11.68;;;7.50;99.90;;;;;;5051868;28;20236;-62
2023/12/31 10:46:17;;;;;;;9.75;8.85;;;7.50;99.90;;;;;;5051874;28;20290;-62
2023/12/31 10:48:48;;;;;;;8.45;7.00;;;7.50;99.90;;;;;;5051549;28;20774;-62
2023/12/31 10:51:21;;;;;;;8.63;7.88;;;7.60;99.90;;;;;;5047294;28;20598;-61
2023/12/31 10:53:51;;;;;;;6.80;6.25;;;7.60;99.90;;;;;;5044011;28;20205;-62
2023/12/31 10:56:18;;;;;;;7.60;6.75;;;7.60;99.90;;;;;;5046387;28;20207;-62
2023/12/31 10:58:46;;;;;;;6.43;5.93;;;7.70;99.90;;;;;;5042014;28;20213;-61
2023/12/31 11:01:15;;;;;;;8.38;7.50;;;7.70;99.90;;;;;;5040759;28;20305;-62
2023/12/31 11:03:44;;;;;;;7.55;6.95;;;7.80;99.90;;;;;;5043262;28;20681;-62
2023/12/31 11:06:12;;;;;;;7.78;6.88;;;7.80;99.90;;;;;;5042211;28;20588;-61
2023/12/31 11:08:39;;;;;;;8.82;7.97;;;7.80;99.90;;;;;;5051013;28;20656;-61
2023/12/31 11:11:07;;;;;;;7.63;6.93;;;7.80;99.90;;;;;;5031538;28;20241;-61
2023/12/31 11:13:37;;;;;;;9.27;7.95;;;7.80;99.90;;;;;;5035511;28;20207;-61
2023/12/31 11:16:07;;;;;;;9.07;8.40;;;7.80;99.90;;;;;;5050926;28;20825;-60
2023/12/31 11:19:01;;;;;;;7.78;7.15;;;7.80;99.90;;;;;;5050906;28;20756;-61
2023/12/31 11:21:44;;;;;;;7.05;6.30;;;7.80;99.90;;;;;;5037450;28;20214;-61
2023/12/31 11:24:16;;;;;;;6.47;5.95;;;7.90;99.90;;;;;;5047591;28;20299;-61
2023/12/31 11:26:43;;;;;;;6.70;6.20;;;7.90;99.90;;;;;;5047911;28;20199;-62
2023/12/31 11:29:13;;;;;;;6.72;6.13;;;7.90;99.90;;;;;;5034480;28;20298;-62
2023/12/31 11:31:41;;;;;;;6.38;5.80;;;8.00;99.90;;;;;;5051041;28;20308;-62
2023/12/31 11:34:10;;;;;;;6.88;6.28;;;7.90;99.90;;;;;;5050799;28;20206;-62
2023/12/31 11:36:37;;;;;;;6.05;5.53;;;8.00;99.90;;;;;;5051383;28;20202;-61
2023/12/31 11:39:06;;;;;;;5.90;5.43;;;8.00;99.90;;;;;;5051003;28;20210;-62
2023/12/31 11:41:40;;;;;;;6.40;5.90;;;8.10;99.90;;;;;;5050798;28;20232;-62
2023/12/31 11:44:07;;;;;;;8.15;6.60;;;8.20;99.90;;;;;;5050798;28;20295;-62
2023/12/31 11:46:36;;;;;;;6.80;6.20;;;8.20;99.90;;;;;;5051276;28;20206;-62
2023/12/31 11:49:03;;;;;;;6.55;6.05;;;8.30;99.90;;;;;;5050761;28;20502;-61
2023/12/31 11:51:54;;;;;;;6.80;6.18;;;8.30;99.90;;;;;;5051058;28;20234;-62
2023/12/31 11:54:22;;;;;;;5.00;4.60;;;8.40;99.90;;;;;;5045624;28;20684;-62
2023/12/31 11:56:48;;;;;;;6.47;5.20;;;8.40;99.90;;;;;;5034561;28;20207;-62
2023/12/31 11:59:16;;;;;;;5.90;5.40;;;8.50;99.90;;;;;;5049604;28;20972;-62
2023/12/31 12:01:43;;;;;;;5.73;5.20;;;8.50;99.90;;;;;;5050995;28;20598;-62
2023/12/31 12:04:11;;;;;;;6.00;5.50;;;8.50;99.90;;;;;;5050840;28;20449;-62
2023/12/31 12:06:40;;;;;;;6.40;5.68;;;8.60;99.90;;;;;;5050909;28;20592;-62
2023/12/31 12:09:07;;;;;;;7.27;6.67;;;8.60;99.90;;;;;;5037307;28;20306;-62
2023/12/31 12:11:33;;;;;;;4.30;4.00;;;8.60;99.90;;;;;;5050775;28;21057;-62
2023/12/31 12:14:01;;;;;;;5.37;4.97;;;8.60;99.90;;;;;;5037939;28;20452;-62
2023/12/31 12:16:29;;;;;;;5.43;4.93;;;8.60;99.90;;;;;;5050896;28;20452;-62
2023/12/31 12:18:59;;;;;;;5.93;5.33;;;8.60;99.90;;;;;;5036317;28;20205;-62
2023/12/31 12:21:27;;;;;;;6.10;5.63;;;8.60;99.90;;;;;;5043397;28;20461;-62
2023/12/31 12:23:55;;;;;;;6.28;4.75;;;8.70;99.90;;;;;;5050875;28;20452;-62
2023/12/31 12:26:22;;;;;;;4.97;4.55;;;8.60;99.90;;;;;;5053316;28;20202;-61
2023/12/31 12:28:50;;;;;;;5.10;4.65;;;8.60;99.90;;;;;;5040648;28;20228;-62
2023/12/31 12:31:18;;;;;;;9.60;8.43;;;8.70;99.90;;;;;;5036090;28;20227;-62
2023/12/31 12:33:45;;;;;;;10.95;9.90;;;8.60;99.90;;;;;;5054561;28;20740;-61
2023/12/31 12:36:12;;;;;;;9.82;8.93;;;8.40;99.90;;;;;;5051825;28;20293;-62
2023/12/31 12:38:40;;;;;;;9.43;8.15;;;8.30;99.90;;;;;;5043315;28;20253;-61
2023/12/31 12:41:08;;;;;;;10.05;9.15;;;8.20;99.90;;;;;;5082033;22;20236;-62
2023/12/31 12:43:36;;;;;;;11.18;10.18;;;8.10;99.90;;;;;;5063861;28;20637;-62
2023/12/31 12:46:05;;;;;;;10.35;9.45;;;8.00;99.90;;;;;;5069519;28;20204;-62
2023/12/31 12:48:33;;;;;;;10.23;7.82;;;7.80;99.90;;;;;;5073577;28;20202;-62
2023/12/31 12:51:00;;;;;;;9.68;8.10;;;7.80;99.90;;;;;;5073414;28;20229;-62
2023/12/31 12:53:27;;;;;;;8.85;8.10;;;7.70;99.90;;;;;;5073906;28;20289;-62
2023/12/31 12:55:54;;;;;;;6.50;6.00;;;7.60;99.90;;;;;;5073717;28;20294;-62